createdAt,value
2018-10-17T00:00:32.871Z,78.63
2018-10-17T00:03:07.657Z,78.70
2018-10-17T00:05:42.627Z,79.29
2018-10-17T00:08:17.280Z,79.90
2018-10-17T00:10:52.000Z,80.09
2018-10-17T00:13:26.776Z,79.59
2018-10-17T00:16:02.173Z,79.77
2018-10-17T00:18:36.975Z,79.73
2018-10-17T00:21:11.394Z,79.58
2018-10-17T00:23:45.876Z,79.19
2018-10-17T00:26:20.867Z,78.71
2018-10-17T00:28:55.631Z,79.20
2018-10-17T00:31:30.659Z,78.93
2018-10-17T00:34:05.682Z,78.12
2018-10-17T00:36:40.577Z,78.54
2018-10-17T00:39:15.328Z,78.41
2018-10-17T00:41:49.799Z,79.23
2018-10-17T00:44:24.224Z,79.22
2018-10-17T00:46:58.673Z,79.84
2018-10-17T00:49:33.271Z,80.14
2018-10-17T00:52:08.072Z,79.67
2018-10-17T00:54:42.588Z,79.89
2018-10-17T00:57:17.411Z,79.56
2018-10-17T00:59:51.888Z,80.13
2018-10-17T01:02:26.222Z,79.95
2018-10-17T01:05:00.849Z,79.70
2018-10-17T01:07:36.000Z,79.46
2018-10-17T01:10:10.706Z,79.71
2018-10-17T01:12:45.591Z,79.47
2018-10-17T01:15:19.919Z,78.93
2018-10-17T01:17:54.411Z,79.12
2018-10-17T01:20:29.612Z,78.56
2018-10-17T01:23:04.118Z,78.92
2018-10-17T01:25:38.681Z,78.70
2018-10-17T01:28:12.971Z,78.87
2018-10-17T01:30:47.502Z,78.70
2018-10-17T01:33:22.610Z,78.54
2018-10-17T01:35:57.497Z,78.72
2018-10-17T01:38:32.164Z,78.96
2018-10-17T01:41:06.556Z,79.11
2018-10-17T01:43:41.309Z,78.87
2018-10-17T01:46:16.429Z,79.35
2018-10-17T01:48:50.886Z,79.38
2018-10-17T01:51:26.111Z,79.56
2018-10-17T01:54:00.863Z,79.46
2018-10-17T01:56:35.647Z,79.18
2018-10-17T01:59:10.444Z,79.42
2018-10-17T02:01:45.385Z,79.29
2018-10-17T02:04:20.801Z,79.12
2018-10-17T02:06:55.299Z,79.39
2018-10-17T02:09:30.520Z,79.97
2018-10-17T02:12:06.335Z,80.11
2018-10-17T02:14:40.704Z,79.34
2018-10-17T02:17:15.442Z,79.54
2018-10-17T02:19:50.346Z,78.96
2018-10-17T02:22:25.260Z,79.27
2018-10-17T02:24:59.985Z,79.19
2018-10-17T02:27:36.387Z,79.05
2018-10-17T02:30:10.853Z,79.10
2018-10-17T02:32:45.471Z,79.34
2018-10-17T02:35:20.818Z,79.55
2018-10-17T02:37:55.735Z,79.59
2018-10-17T02:40:30.448Z,79.48
2018-10-17T02:43:06.285Z,79.40
2018-10-17T02:45:41.489Z,79.64
2018-10-17T02:48:16.090Z,79.55
2018-10-17T02:50:50.984Z,79.48
2018-10-17T02:53:25.433Z,79.30
2018-10-17T02:56:00.106Z,79.32
2018-10-17T02:58:35.314Z,79.28
2018-10-17T03:01:09.684Z,79.53
2018-10-17T03:03:44.451Z,79.41
2018-10-17T03:06:19.019Z,79.70
2018-10-17T03:08:53.660Z,79.66
2018-10-17T03:11:28.080Z,79.78
2018-10-17T03:14:02.638Z,79.57
2018-10-17T03:16:37.083Z,79.91
2018-10-17T03:19:12.069Z,79.62
2018-10-17T03:21:47.168Z,80.07
2018-10-17T03:24:22.016Z,79.99
2018-10-17T03:26:56.641Z,80.84
2018-10-17T03:29:31.364Z,80.34
2018-10-17T03:32:06.171Z,79.89
2018-10-17T03:34:40.519Z,80.39
2018-10-17T03:37:15.365Z,80.07
2018-10-17T03:39:49.883Z,79.72
2018-10-17T03:42:24.237Z,79.85
2018-10-17T03:44:58.876Z,79.89
2018-10-17T03:47:33.657Z,80.83
2018-10-17T03:50:08.321Z,80.24
2018-10-17T03:52:43.168Z,80.13
2018-10-17T03:55:17.774Z,80.36
2018-10-17T03:57:52.460Z,80.55
2018-10-17T04:00:26.984Z,80.02
2018-10-17T04:03:01.620Z,80.82
2018-10-17T04:05:36.365Z,81.45
2018-10-17T04:08:10.931Z,81.58
2018-10-17T04:10:46.472Z,80.91
2018-10-17T04:13:20.959Z,80.77
2018-10-17T04:15:56.399Z,80.61
2018-10-17T04:18:30.906Z,80.55
2018-10-17T04:21:07.612Z,81.11
2018-10-17T04:23:43.263Z,82.09
2018-10-17T04:26:17.750Z,80.97
2018-10-17T04:28:52.566Z,81.53
2018-10-17T04:31:27.188Z,82.32
2018-10-17T04:34:01.960Z,82.01
2018-10-17T04:36:36.560Z,81.71
2018-10-17T04:39:12.176Z,80.93
2018-10-17T04:41:46.471Z,80.57
2018-10-17T04:44:24.461Z,80.41
2018-10-17T04:46:59.079Z,80.35
2018-10-17T04:49:33.872Z,79.56
2018-10-17T04:52:09.050Z,80.11
2018-10-17T04:54:43.601Z,80.04
2018-10-17T04:57:18.038Z,80.36
2018-10-17T04:59:52.491Z,80.36
2018-10-17T05:02:26.894Z,80.22
2018-10-17T05:05:01.871Z,80.15
2018-10-17T05:07:37.572Z,81.31
2018-10-17T05:10:12.295Z,80.50
2018-10-17T05:12:47.526Z,80.48
2018-10-17T05:15:22.323Z,80.37
2018-10-17T05:17:56.852Z,80.61
2018-10-17T05:20:31.284Z,80.24
2018-10-17T05:23:06.464Z,80.39
2018-10-17T05:25:41.926Z,80.36
2018-10-17T05:28:16.435Z,80.17
2018-10-17T05:30:51.110Z,81.04
2018-10-17T05:33:26.097Z,81.98
2018-10-17T05:36:00.733Z,82.74
2018-10-17T05:38:35.538Z,82.72
2018-10-17T05:41:10.891Z,82.94
2018-10-17T05:43:46.076Z,83.16
2018-10-17T05:46:20.831Z,83.05
2018-10-17T05:48:55.514Z,83.08
2018-10-17T05:51:30.505Z,83.08
2018-10-17T05:54:05.083Z,83.11
2018-10-17T05:56:39.939Z,82.62
2018-10-17T05:59:14.972Z,82.63
2018-10-17T06:01:50.807Z,81.92
2018-10-17T06:04:25.594Z,81.37
2018-10-17T06:07:00.127Z,81.18
2018-10-17T06:09:34.873Z,81.35
2018-10-17T06:12:09.624Z,81.11
2018-10-17T06:14:44.441Z,82.74
2018-10-17T06:17:19.053Z,82.93
2018-10-17T06:19:54.336Z,82.66
2018-10-17T06:22:28.789Z,82.11
2018-10-17T06:25:03.659Z,81.30
2018-10-17T06:27:38.299Z,81.42
2018-10-17T06:30:12.993Z,81.49
2018-10-17T06:32:47.796Z,81.82
2018-10-17T06:35:22.334Z,82.11
2018-10-17T06:37:56.884Z,81.50
2018-10-17T06:40:31.664Z,81.69
2018-10-17T06:43:06.596Z,81.74
2018-10-17T06:45:41.764Z,81.41
2018-10-17T06:48:16.370Z,81.13
2018-10-17T06:50:51.135Z,81.19
2018-10-17T06:53:26.007Z,81.43
2018-10-17T06:56:00.908Z,81.63
2018-10-17T06:58:35.572Z,81.79
2018-10-17T07:01:09.935Z,82.13
2018-10-17T07:03:44.500Z,82.00
2018-10-17T07:06:18.968Z,81.83
2018-10-17T07:08:53.295Z,81.78
2018-10-17T07:11:28.046Z,81.25
2018-10-17T07:14:03.128Z,81.59
2018-10-17T07:16:37.588Z,81.24
2018-10-17T07:19:12.483Z,81.63
2018-10-17T07:21:47.357Z,81.13
2018-10-17T07:24:22.119Z,80.11
2018-10-17T07:26:57.476Z,79.85
2018-10-17T07:29:32.677Z,79.53
2018-10-17T07:32:08.125Z,79.88
2018-10-17T07:34:42.493Z,80.13
2018-10-17T07:37:17.400Z,81.09
2018-10-17T07:39:52.037Z,80.25
2018-10-17T07:42:26.835Z,79.62
2018-10-17T07:45:01.318Z,79.01
2018-10-17T07:47:36.068Z,77.63
2018-10-17T07:50:11.040Z,75.90
2018-10-17T07:52:45.755Z,75.29
2018-10-17T07:55:21.183Z,76.52
2018-10-17T07:57:55.878Z,77.59
2018-10-17T08:00:30.465Z,75.89
2018-10-17T08:03:05.432Z,75.21
2018-10-17T08:05:39.952Z,73.21
2018-10-17T08:08:15.144Z,72.85
2018-10-17T08:10:50.472Z,70.14
2018-10-17T08:13:25.519Z,71.33
2018-10-17T08:16:00.477Z,69.69
2018-10-17T08:18:35.218Z,68.06
2018-10-17T08:21:09.928Z,67.90
2018-10-17T08:23:44.476Z,69.07
2018-10-17T08:26:19.051Z,68.25
2018-10-17T08:28:53.560Z,68.40
2018-10-17T08:31:28.040Z,65.89
2018-10-17T08:34:04.944Z,66.38
2018-10-17T08:36:40.100Z,68.16
2018-10-17T08:39:14.622Z,65.95
2018-10-17T08:41:49.757Z,63.83
2018-10-17T08:44:24.605Z,63.02
2018-10-17T08:46:59.312Z,64.92
2018-10-17T08:49:34.213Z,62.06
2018-10-17T08:52:08.826Z,62.20
2018-10-17T08:54:43.283Z,61.41
2018-10-17T08:57:18.116Z,63.72
2018-10-17T08:59:52.605Z,61.50
2018-10-17T09:02:27.872Z,58.45
2018-10-17T09:05:02.216Z,58.76
2018-10-17T09:07:36.904Z,56.17
2018-10-17T09:10:11.948Z,59.27
2018-10-17T09:12:46.888Z,59.34
2018-10-17T09:15:21.675Z,55.24
2018-10-17T09:17:56.535Z,56.18
2018-10-17T09:20:31.895Z,57.86
2018-10-17T09:23:06.749Z,55.98
2018-10-17T09:25:41.611Z,53.24
2018-10-17T09:28:16.387Z,53.84
2018-10-17T09:30:51.188Z,51.14
2018-10-17T09:33:25.541Z,49.47
2018-10-17T09:36:00.420Z,49.11
2018-10-17T09:38:35.386Z,49.60
2018-10-17T09:41:09.945Z,52.65
2018-10-17T09:43:44.387Z,52.13
2018-10-17T09:46:19.394Z,51.86
2018-10-17T09:48:54.825Z,50.22
2018-10-17T09:51:33.165Z,48.18
2018-10-17T09:54:08.235Z,45.03
2018-10-17T09:56:43.521Z,47.30
2018-10-17T09:59:18.469Z,45.74
2018-10-17T10:01:54.080Z,48.42
2018-10-17T10:04:28.820Z,49.21
2018-10-17T10:07:03.693Z,48.34
2018-10-17T10:09:38.200Z,50.51
2018-10-17T10:12:12.941Z,49.53
2018-10-17T10:14:47.692Z,45.66
2018-10-17T10:17:22.094Z,48.88
2018-10-17T10:19:56.927Z,44.51
2018-10-17T10:22:31.350Z,46.42
2018-10-17T10:25:06.149Z,48.25
2018-10-17T10:27:40.937Z,48.64
2018-10-17T10:30:15.712Z,48.82
2018-10-17T10:32:50.763Z,54.08
2018-10-17T10:35:25.240Z,53.10
2018-10-17T10:37:59.896Z,50.41
2018-10-17T10:40:34.468Z,48.83
2018-10-17T10:43:09.600Z,47.73
2018-10-17T10:45:43.948Z,47.89
2018-10-17T10:48:23.804Z,51.07
2018-10-17T10:50:58.540Z,50.53
2018-10-17T10:53:33.184Z,50.88
2018-10-17T10:56:07.744Z,50.01
2018-10-17T10:58:42.989Z,46.67
2018-10-17T11:01:17.554Z,45.05
2018-10-17T11:03:52.140Z,44.26
2018-10-17T11:06:26.881Z,43.04
2018-10-17T11:09:01.668Z,43.76
2018-10-17T11:11:36.149Z,46.94
2018-10-17T11:14:11.145Z,44.99
2018-10-17T11:16:45.718Z,46.97
2018-10-17T11:19:20.437Z,41.62
2018-10-17T11:21:55.678Z,45.33
2018-10-17T11:24:30.517Z,42.55
2018-10-17T11:27:05.425Z,43.06
2018-10-17T11:29:39.976Z,44.63
2018-10-17T11:32:19.349Z,43.63
2018-10-17T11:34:53.670Z,43.84
2018-10-17T11:37:28.201Z,46.01
2018-10-17T11:40:03.344Z,42.47
2018-10-17T11:42:38.030Z,42.26
2018-10-17T11:45:12.856Z,40.52
2018-10-17T11:47:47.505Z,39.18
2018-10-17T11:50:22.814Z,40.53
2018-10-17T11:52:58.100Z,40.06
2018-10-17T11:55:33.406Z,40.50
2018-10-17T11:58:08.331Z,41.37
2018-10-17T12:00:43.056Z,39.85
2018-10-17T12:03:17.884Z,41.02
2018-10-17T12:05:52.766Z,40.03
2018-10-17T12:08:28.009Z,44.47
2018-10-17T12:11:02.933Z,40.20
2018-10-17T12:13:37.510Z,40.25
2018-10-17T12:16:12.289Z,39.54
2018-10-17T12:18:46.844Z,42.98
2018-10-17T12:21:21.319Z,41.69
2018-10-17T12:23:56.428Z,41.15
2018-10-17T12:26:31.277Z,40.76
2018-10-17T12:29:06.100Z,42.12
2018-10-17T12:31:41.384Z,44.68
2018-10-17T12:34:15.963Z,42.04
2018-10-17T12:36:50.485Z,42.55
2018-10-17T12:39:25.028Z,43.26
2018-10-17T12:42:00.209Z,38.46
2018-10-17T12:44:34.803Z,39.13
2018-10-17T12:47:11.677Z,39.23
2018-10-17T12:49:46.512Z,43.04
2018-10-17T12:52:21.531Z,40.68
2018-10-17T12:54:56.560Z,42.09
2018-10-17T12:57:31.308Z,41.02
2018-10-17T13:00:07.776Z,43.97
2018-10-17T13:02:42.400Z,43.27
2018-10-17T13:05:17.367Z,41.82
2018-10-17T13:07:52.437Z,41.88
2018-10-17T13:10:26.775Z,39.91
2018-10-17T13:13:01.893Z,42.19
2018-10-17T13:15:37.241Z,41.99
2018-10-17T13:18:16.927Z,39.31
2018-10-17T13:20:51.492Z,43.95
2018-10-17T13:23:28.007Z,43.33
2018-10-17T13:26:03.782Z,40.91
2018-10-17T13:28:39.009Z,43.35
2018-10-17T13:31:13.587Z,41.38
2018-10-17T13:33:48.600Z,43.04
2018-10-17T13:36:24.624Z,42.91
2018-10-17T13:39:03.727Z,42.27
2018-10-17T13:41:38.180Z,41.88
2018-10-17T13:44:12.925Z,43.88
2018-10-17T13:46:51.384Z,46.13
2018-10-17T13:49:26.046Z,44.69
2018-10-17T13:52:00.997Z,46.54
2018-10-17T13:54:35.807Z,47.83
2018-10-17T13:57:10.672Z,49.86
2018-10-17T13:59:45.804Z,48.06
2018-10-17T14:02:20.534Z,45.17
2018-10-17T14:04:55.496Z,49.34
2018-10-17T14:07:30.387Z,48.36
2018-10-17T14:10:05.788Z,48.06
2018-10-17T14:12:40.488Z,48.84
2018-10-17T14:15:15.102Z,49.69
2018-10-17T14:17:50.853Z,47.34
2018-10-17T14:20:25.799Z,46.53
2018-10-17T14:23:02.383Z,47.76
2018-10-17T14:25:37.061Z,47.54
2018-10-17T14:28:11.570Z,46.64
2018-10-17T14:30:46.422Z,47.66
2018-10-17T14:33:25.056Z,45.48
2018-10-17T14:35:59.825Z,46.87
2018-10-17T14:38:34.488Z,47.94
2018-10-17T14:41:09.843Z,46.55
2018-10-17T14:43:44.763Z,43.46
2018-10-17T14:46:19.573Z,45.06
2018-10-17T14:48:54.069Z,44.95
2018-10-17T14:51:28.588Z,45.51
2018-10-17T14:54:03.283Z,46.35
2018-10-17T14:56:37.679Z,45.49
2018-10-17T14:59:14.400Z,47.73
2018-10-17T15:01:49.312Z,48.89
2018-10-17T15:04:24.292Z,47.52
2018-10-17T15:06:59.228Z,49.34
2018-10-17T15:09:33.875Z,48.86
2018-10-17T15:12:08.489Z,49.70
2018-10-17T15:14:43.139Z,48.66
2018-10-17T15:17:17.490Z,48.25
2018-10-17T15:19:52.320Z,50.07
2018-10-17T15:22:26.940Z,50.69
2018-10-17T15:25:01.573Z,49.52
2018-10-17T15:27:36.200Z,50.55
2018-10-17T15:30:11.499Z,50.44
2018-10-17T15:32:46.017Z,52.49
2018-10-17T15:35:20.491Z,51.88
2018-10-17T15:37:55.116Z,52.18
2018-10-17T15:40:29.832Z,52.17
2018-10-17T15:43:04.607Z,52.08
2018-10-17T15:45:39.188Z,53.39
2018-10-17T15:48:13.588Z,54.11
2018-10-17T15:50:48.471Z,53.92
2018-10-17T15:53:23.185Z,53.61
2018-10-17T15:55:58.540Z,54.32
2018-10-17T15:58:33.508Z,53.67
2018-10-17T16:01:08.946Z,54.94
2018-10-17T16:03:44.330Z,55.79
2018-10-17T16:06:19.295Z,56.22
2018-10-17T16:08:54.029Z,59.32
2018-10-17T16:11:28.666Z,60.52
2018-10-17T16:14:03.982Z,60.25
2018-10-17T16:16:39.084Z,61.35
2018-10-17T16:19:14.233Z,60.45
2018-10-17T16:21:48.902Z,62.28
2018-10-17T16:24:23.658Z,62.26
2018-10-17T16:26:58.296Z,62.68
2018-10-17T16:29:32.901Z,62.83
2018-10-17T16:32:07.916Z,64.65
2018-10-17T16:34:42.532Z,64.91
2018-10-17T16:37:17.401Z,64.92
2018-10-17T16:39:59.606Z,65.61
2018-10-17T16:42:34.761Z,66.81
2018-10-17T16:45:10.417Z,66.44
2018-10-17T16:47:45.912Z,66.49
2018-10-17T16:50:20.971Z,67.21
2018-10-17T16:52:55.730Z,67.54
2018-10-17T16:55:30.728Z,67.89
2018-10-17T16:58:15.399Z,68.21
2018-10-17T17:00:49.899Z,68.03
2018-10-17T17:03:24.337Z,68.22
2018-10-17T17:05:59.230Z,68.08
2018-10-17T17:08:39.440Z,68.33
2018-10-17T17:11:14.535Z,68.03
2018-10-17T17:13:51.775Z,68.19
2018-10-17T17:16:26.296Z,68.16
2018-10-17T17:19:00.893Z,69.05
2018-10-17T17:21:35.522Z,69.58
2018-10-17T17:24:10.412Z,69.97
2018-10-17T17:26:45.694Z,69.74
2018-10-17T17:29:20.736Z,70.55
2018-10-17T17:31:55.475Z,70.41
2018-10-17T17:34:29.988Z,70.54
2018-10-17T17:37:05.532Z,71.37
2018-10-17T17:39:40.246Z,71.73
2018-10-17T17:42:14.892Z,71.26
2018-10-17T17:44:49.824Z,70.89
2018-10-17T17:47:24.350Z,70.45
2018-10-17T17:49:59.074Z,70.81
2018-10-17T17:52:37.680Z,71.18
2018-10-17T17:55:13.140Z,71.81
2018-10-17T17:57:47.625Z,72.05
2018-10-17T18:00:22.709Z,71.59
2018-10-17T18:02:58.148Z,71.74
2018-10-17T18:05:33.769Z,71.92
2018-10-17T18:08:09.038Z,71.47
2018-10-17T18:10:43.967Z,73.09
2018-10-17T18:13:18.737Z,72.57
2018-10-17T18:15:53.579Z,72.97
2018-10-17T18:18:28.522Z,72.30
2018-10-17T18:21:03.023Z,72.75
2018-10-17T18:23:37.602Z,72.71
2018-10-17T18:26:13.637Z,72.96
2018-10-17T18:28:49.054Z,73.13
2018-10-17T18:31:24.130Z,73.01
2018-10-17T18:33:59.118Z,73.52
2018-10-17T18:36:34.213Z,73.87
2018-10-17T18:39:09.031Z,73.75
2018-10-17T18:41:43.400Z,73.86
2018-10-17T18:44:17.880Z,74.10
2018-10-17T18:46:53.218Z,74.53
2018-10-17T18:49:28.173Z,74.56
2018-10-17T18:52:03.550Z,74.55
2018-10-17T18:54:38.422Z,74.27
2018-10-17T18:57:13.090Z,75.13
2018-10-17T18:59:47.729Z,74.76
2018-10-17T19:02:22.637Z,74.87
2018-10-17T19:04:57.529Z,74.93
2018-10-17T19:07:32.372Z,75.05
2018-10-17T19:10:06.761Z,74.74
2018-10-17T19:12:41.433Z,75.29
2018-10-17T19:15:16.619Z,75.17
2018-10-17T19:17:53.884Z,76.18
2018-10-17T19:20:28.482Z,76.18
2018-10-17T19:23:03.376Z,76.02
2018-10-17T19:25:37.876Z,75.07
2018-10-17T19:28:12.356Z,75.70
2018-10-17T19:30:47.167Z,75.97
2018-10-17T19:33:22.562Z,76.01
2018-10-17T19:35:59.040Z,75.56
2018-10-17T19:38:34.223Z,75.55
2018-10-17T19:41:09.207Z,76.08
2018-10-17T19:43:46.000Z,76.29
2018-10-17T19:46:21.192Z,76.45
2018-10-17T19:48:55.840Z,76.38
2018-10-17T19:51:30.983Z,75.92
2018-10-17T19:54:07.980Z,76.12
2018-10-17T19:56:42.507Z,76.76
2018-10-17T19:59:16.897Z,76.29
2018-10-17T20:01:51.783Z,76.33
2018-10-17T20:04:26.383Z,76.41
2018-10-17T20:07:00.920Z,76.23
2018-10-17T20:09:35.864Z,76.41
2018-10-17T20:12:10.257Z,77.07
2018-10-17T20:14:45.204Z,77.00
2018-10-17T20:17:20.535Z,77.04
2018-10-17T20:19:55.354Z,76.92
2018-10-17T20:22:29.916Z,76.71
2018-10-17T20:25:05.355Z,76.72
2018-10-17T20:27:40.059Z,76.59
2018-10-17T20:30:14.891Z,76.75
2018-10-17T20:32:49.700Z,77.06
2018-10-17T20:35:24.330Z,77.33
2018-10-17T20:37:59.217Z,76.77
2018-10-17T20:40:34.145Z,76.93
2018-10-17T20:43:09.109Z,78.71
2018-10-17T20:45:44.041Z,78.87
2018-10-17T20:48:18.389Z,79.48
2018-10-17T20:50:52.971Z,78.89
2018-10-17T20:53:27.742Z,78.57
2018-10-17T20:56:02.599Z,79.57
2018-10-17T20:58:37.977Z,78.40
2018-10-17T21:01:12.561Z,78.29
2018-10-17T21:03:47.648Z,78.48
2018-10-17T21:06:22.540Z,78.04
2018-10-17T21:08:57.158Z,78.24
2018-10-17T21:11:31.755Z,77.77
2018-10-17T21:14:06.532Z,77.82
2018-10-17T21:16:42.766Z,77.71
2018-10-17T21:19:17.336Z,78.17
2018-10-17T21:21:52.050Z,78.67
2018-10-17T21:24:26.768Z,79.03
2018-10-17T21:27:01.315Z,78.94
2018-10-17T21:29:35.861Z,78.83
2018-10-17T21:32:11.045Z,80.13
2018-10-17T21:34:45.653Z,79.06
2018-10-17T21:37:20.810Z,78.64
2018-10-17T21:39:55.311Z,78.64
2018-10-17T21:42:30.743Z,77.90
2018-10-17T21:45:06.532Z,77.86
2018-10-17T21:47:41.175Z,77.90
2018-10-17T21:50:15.856Z,78.11
2018-10-17T21:52:50.493Z,77.86
2018-10-17T21:55:25.205Z,77.93
2018-10-17T21:58:00.092Z,78.04
2018-10-17T22:00:35.048Z,78.01
2018-10-17T22:03:09.647Z,78.10
2018-10-17T22:05:44.609Z,77.86
2018-10-17T22:08:18.988Z,79.38
2018-10-17T22:10:54.957Z,79.09
2018-10-17T22:13:29.345Z,79.82
2018-10-17T22:16:04.112Z,78.77
2018-10-17T22:18:38.602Z,78.88
2018-10-17T22:21:13.129Z,78.72
2018-10-17T22:23:47.508Z,78.99
2018-10-17T22:26:21.948Z,79.27
2018-10-17T22:28:56.313Z,79.14
2018-10-17T22:31:30.887Z,79.11
2018-10-17T22:34:06.041Z,79.48
2018-10-17T22:36:40.588Z,80.02
2018-10-17T22:39:15.763Z,79.35
2018-10-17T22:41:51.736Z,79.10
2018-10-17T22:44:26.299Z,80.37
2018-10-17T22:47:00.784Z,80.10
2018-10-17T22:49:35.731Z,80.59
2018-10-17T22:52:10.465Z,80.54
2018-10-17T22:54:44.912Z,79.80
2018-10-17T22:57:19.385Z,80.93
2018-10-17T22:59:53.844Z,80.98
2018-10-17T23:02:28.588Z,80.77
2018-10-17T23:05:03.023Z,80.02
2018-10-17T23:07:37.608Z,79.64
2018-10-17T23:10:12.692Z,80.35
2018-10-17T23:12:47.152Z,80.54
2018-10-17T23:15:21.868Z,80.52
2018-10-17T23:17:56.256Z,81.03
2018-10-17T23:20:31.382Z,81.74
2018-10-17T23:23:06.436Z,80.93
2018-10-17T23:25:41.567Z,80.80
2018-10-17T23:28:16.169Z,80.65
2018-10-17T23:30:51.309Z,80.32
2018-10-17T23:33:25.828Z,79.35
2018-10-17T23:36:00.592Z,79.73
2018-10-17T23:38:35.215Z,79.64
2018-10-17T23:41:10.311Z,79.58
2018-10-17T23:43:44.868Z,79.83
2018-10-17T23:46:19.635Z,79.23
2018-10-17T23:48:54.656Z,79.73
2018-10-17T23:51:29.084Z,79.87
2018-10-17T23:54:04.297Z,80.80
2018-10-17T23:56:39.926Z,81.41
2018-10-17T23:59:14.693Z,80.48
